createdAt,value
2023-01-08T00:01:12.558Z,100956.00
2023-01-08T00:03:41.101Z,100956.84
2023-01-08T00:06:12.442Z,100962.66
2023-01-08T00:08:40.424Z,100963.53
2023-01-08T00:11:08.439Z,100960.59
2023-01-08T00:13:36.160Z,100958.38
2023-01-08T00:16:06.601Z,100955.13
2023-01-08T00:18:34.561Z,100953.72
2023-01-08T00:21:02.823Z,100946.09
2023-01-08T00:23:31.006Z,100949.97
2023-01-08T00:26:02.497Z,100939.56
2023-01-08T00:28:30.828Z,100943.47
2023-01-08T00:30:58.675Z,100935.56
2023-01-08T00:33:26.363Z,100941.69
2023-01-08T00:35:54.390Z,100935.13
2023-01-08T00:38:29.120Z,100938.50
2023-01-08T00:40:57.065Z,100937.56
2023-01-08T00:43:24.772Z,100933.81
2023-01-08T00:45:53.965Z,100941.06
2023-01-08T00:48:25.225Z,100945.22
2023-01-08T00:50:54.317Z,100941.50
2023-01-08T00:53:22.870Z,100941.91
2023-01-08T00:55:50.523Z,100937.25
2023-01-08T00:58:18.130Z,100940.94
2023-01-08T01:00:46.190Z,100942.47
2023-01-08T01:03:14.094Z,100937.88
2023-01-08T01:05:41.814Z,100945.09
2023-01-08T01:08:09.692Z,100941.38
2023-01-08T01:10:39.574Z,100939.41
2023-01-08T01:13:07.335Z,100943.16
2023-01-08T01:15:35.496Z,100939.22
2023-01-08T01:18:03.203Z,100943.66
2023-01-08T01:20:30.817Z,100939.13
2023-01-08T01:22:58.685Z,100941.34
2023-01-08T01:25:26.296Z,100934.97
2023-01-08T01:27:54.128Z,100929.06
2023-01-08T01:30:22.028Z,100927.84
2023-01-08T01:32:49.618Z,100932.78
2023-01-08T01:35:17.236Z,100936.13
2023-01-08T01:37:45.230Z,100931.22
2023-01-08T01:40:12.893Z,100929.88
2023-01-08T01:42:40.555Z,100919.16
2023-01-08T01:45:22.411Z,100923.16
2023-01-08T01:47:54.001Z,100920.53
2023-01-08T01:50:32.709Z,100924.81
2023-01-08T01:53:03.286Z,100927.97
2023-01-08T01:55:32.219Z,100919.97
2023-01-08T01:58:15.290Z,100916.75
2023-01-08T02:00:44.342Z,100918.97
2023-01-08T02:03:14.520Z,100928.22
2023-01-08T02:05:56.254Z,100931.50
2023-01-08T02:09:06.548Z,100929.13
2023-01-08T02:12:13.095Z,100934.41
2023-01-08T02:15:18.934Z,100935.41
2023-01-08T02:17:56.065Z,100933.19
2023-01-08T02:20:27.813Z,100935.84
2023-01-08T02:23:19.978Z,100940.25
2023-01-08T02:26:23.920Z,100935.81
2023-01-08T02:29:05.412Z,100934.16
2023-01-08T02:31:35.143Z,100931.31
2023-01-08T02:34:03.061Z,100933.91
2023-01-08T02:36:46.902Z,100931.28
2023-01-08T02:39:24.271Z,100927.72
2023-01-08T02:42:16.985Z,100925.88
2023-01-08T02:45:12.450Z,100922.25
2023-01-08T02:47:45.649Z,100920.47
2023-01-08T02:50:38.360Z,100928.81
2023-01-08T02:53:14.578Z,100910.84
2023-01-08T02:55:50.080Z,100916.06
2023-01-08T02:58:18.997Z,100910.91
2023-01-08T03:00:48.107Z,100915.37
2023-01-08T03:03:28.625Z,100910.44
2023-01-08T03:06:18.204Z,100913.44
2023-01-08T03:08:48.897Z,100916.00
2023-01-08T03:11:19.611Z,100915.25
2023-01-08T03:14:15.813Z,100920.81
2023-01-08T03:16:55.613Z,100922.03
2023-01-08T03:19:38.415Z,100920.41
2023-01-08T03:22:11.735Z,100919.88
2023-01-08T03:24:41.732Z,100924.22
2023-01-08T03:27:16.676Z,100920.72
2023-01-08T03:29:48.004Z,100929.97
2023-01-08T03:32:19.164Z,100927.06
2023-01-08T03:34:50.619Z,100921.09
2023-01-08T03:37:25.738Z,100917.75
2023-01-08T03:40:03.723Z,100901.22
2023-01-08T03:42:32.665Z,100900.16
2023-01-08T03:45:01.195Z,100901.91
2023-01-08T03:47:33.850Z,100901.59
2023-01-08T03:50:06.617Z,100896.59
2023-01-08T03:52:34.538Z,100897.81
2023-01-08T03:55:03.180Z,100898.06
2023-01-08T03:57:30.735Z,100895.44
2023-01-08T03:59:58.345Z,100895.91
2023-01-08T04:02:26.417Z,100887.78
2023-01-08T04:04:54.404Z,100882.03
2023-01-08T04:07:21.998Z,100877.66
2023-01-08T04:09:49.628Z,100881.00
2023-01-08T04:12:17.666Z,100881.37
2023-01-08T04:14:45.289Z,100885.50
2023-01-08T04:17:13.737Z,100875.09
2023-01-08T04:19:41.660Z,100885.13
2023-01-08T04:22:12.649Z,100883.63
2023-01-08T04:24:40.269Z,100888.56
2023-01-08T04:27:08.521Z,100882.91
2023-01-08T04:29:36.238Z,100894.72
2023-01-08T04:32:03.872Z,100904.00
2023-01-08T04:34:31.801Z,100898.91
2023-01-08T04:36:59.709Z,100899.53
2023-01-08T04:39:27.406Z,100896.34
2023-01-08T04:41:55.363Z,100890.53
2023-01-08T04:44:22.944Z,100894.75
2023-01-08T04:46:50.568Z,100888.19
2023-01-08T04:49:18.652Z,100885.50
2023-01-08T04:51:46.268Z,100885.66
2023-01-08T04:54:13.972Z,100888.22
2023-01-08T04:56:42.018Z,100895.78
2023-01-08T04:59:09.651Z,100891.03
2023-01-08T05:01:37.267Z,100888.16
2023-01-08T05:04:05.896Z,100868.72
2023-01-08T05:06:33.833Z,100873.84
2023-01-08T05:09:01.460Z,100865.72
2023-01-08T05:11:29.502Z,100874.47
2023-01-08T05:13:57.171Z,100868.94
2023-01-08T05:16:24.808Z,100880.44
2023-01-08T05:18:53.007Z,100863.84
2023-01-08T05:21:21.025Z,100883.25
2023-01-08T05:23:48.827Z,100888.00
2023-01-08T05:26:17.423Z,100892.94
2023-01-08T05:28:45.589Z,100894.13
2023-01-08T05:31:14.046Z,100890.94
2023-01-08T05:33:42.053Z,100901.25
2023-01-08T05:36:12.245Z,100904.87
2023-01-08T05:38:40.573Z,100895.38
2023-01-08T05:41:08.582Z,100904.75
2023-01-08T05:43:36.757Z,100900.75
2023-01-08T05:46:05.990Z,100900.03
2023-01-08T05:48:35.799Z,100905.66
2023-01-08T05:51:04.526Z,100913.50
2023-01-08T05:53:33.115Z,100912.31
2023-01-08T05:56:10.112Z,100913.69
2023-01-08T05:58:38.260Z,100911.16
2023-01-08T06:01:11.713Z,100907.94
2023-01-08T06:03:40.239Z,100906.34
2023-01-08T06:06:08.683Z,100904.72
2023-01-08T06:08:36.305Z,100894.50
2023-01-08T06:11:07.099Z,100903.31
2023-01-08T06:13:35.891Z,100897.13
2023-01-08T06:16:04.281Z,100894.66
2023-01-08T06:18:32.031Z,100892.97
2023-01-08T06:20:59.641Z,100886.12
2023-01-08T06:23:27.554Z,100899.28
2023-01-08T06:25:56.663Z,100901.03
2023-01-08T06:28:25.379Z,100909.16
2023-01-08T06:30:53.685Z,100916.13
2023-01-08T06:33:21.770Z,100912.97
2023-01-08T06:35:49.401Z,100919.72
2023-01-08T06:38:20.548Z,100924.63
2023-01-08T06:40:48.331Z,100925.84
2023-01-08T06:43:16.048Z,100914.53
2023-01-08T06:45:44.016Z,100920.31
2023-01-08T06:48:11.619Z,100924.63
2023-01-08T06:50:39.221Z,100919.66
2023-01-08T06:53:07.100Z,100924.03
2023-01-08T06:55:34.805Z,100944.03
2023-01-08T06:58:02.639Z,100932.56
2023-01-08T07:00:30.562Z,100929.13
2023-01-08T07:02:58.607Z,100938.31
2023-01-08T07:05:26.305Z,100935.16
2023-01-08T07:07:54.724Z,100930.81
2023-01-08T07:10:22.637Z,100929.94
2023-01-08T07:12:50.295Z,100927.25
2023-01-08T07:15:18.195Z,100917.91
2023-01-08T07:17:45.747Z,100909.34
2023-01-08T07:20:13.353Z,100919.50
2023-01-08T07:22:41.323Z,100925.41
2023-01-08T07:25:09.213Z,100933.53
2023-01-08T07:27:36.785Z,100940.31
2023-01-08T07:30:05.217Z,100953.41
2023-01-08T07:32:32.886Z,100949.03
2023-01-08T07:35:01.064Z,100953.16
2023-01-08T07:37:29.146Z,100958.38
2023-01-08T07:39:56.868Z,100954.09
2023-01-08T07:42:24.601Z,100959.75
2023-01-08T07:44:52.570Z,100941.09
2023-01-08T07:47:20.136Z,100948.44
2023-01-08T07:49:47.785Z,100946.44
2023-01-08T07:52:15.702Z,100945.41
2023-01-08T07:54:43.507Z,100947.22
2023-01-08T07:57:11.167Z,100944.59
2023-01-08T07:59:39.152Z,100936.66
2023-01-08T08:02:07.314Z,100946.66
2023-01-08T08:04:35.256Z,100930.59
2023-01-08T08:07:02.945Z,100924.06
2023-01-08T08:09:30.586Z,100939.41
2023-01-08T08:11:58.682Z,100930.31
2023-01-08T08:14:26.237Z,100924.00
2023-01-08T08:16:53.853Z,100924.22
2023-01-08T08:19:21.760Z,100932.59
2023-01-08T08:21:49.568Z,100923.97
2023-01-08T08:24:17.154Z,100919.59
2023-01-08T08:26:45.073Z,100907.53
2023-01-08T08:29:12.965Z,100914.00
2023-01-08T08:31:40.739Z,100902.19
2023-01-08T08:34:08.924Z,100911.59
2023-01-08T08:36:36.524Z,100915.94
2023-01-08T08:39:04.738Z,100919.84
2023-01-08T08:41:32.622Z,100917.25
2023-01-08T08:44:00.260Z,100917.94
2023-01-08T08:46:29.323Z,100929.41
2023-01-08T08:48:57.258Z,100911.72
2023-01-08T08:51:24.969Z,100928.94
2023-01-08T08:53:52.697Z,100919.56
2023-01-08T08:56:20.558Z,100920.00
2023-01-08T08:58:48.379Z,100927.69
2023-01-08T09:01:16.074Z,100920.34
2023-01-08T09:03:44.133Z,100909.50
2023-01-08T09:06:15.441Z,100920.41
2023-01-08T09:08:43.111Z,100908.91
2023-01-08T09:11:13.070Z,100905.75
2023-01-08T09:13:41.856Z,100908.41
2023-01-08T09:16:09.461Z,100903.59
2023-01-08T09:18:37.513Z,100904.78
2023-01-08T09:21:08.604Z,100896.56
2023-01-08T09:23:36.540Z,100900.81
2023-01-08T09:26:05.989Z,100890.16
2023-01-08T09:28:33.736Z,100893.72
2023-01-08T09:31:04.584Z,100891.56
2023-01-08T09:33:32.817Z,100883.59
2023-01-08T09:36:00.342Z,100882.53
2023-01-08T09:38:30.031Z,100884.97
2023-01-08T09:41:30.444Z,100885.88
2023-01-08T09:44:00.154Z,100877.56
2023-01-08T09:46:29.421Z,100868.44
2023-01-08T09:49:01.897Z,100866.66
2023-01-08T09:51:35.653Z,100872.25
2023-01-08T09:54:03.429Z,100871.47
2023-01-08T09:56:34.403Z,100864.69
2023-01-08T09:59:04.593Z,100863.72
2023-01-08T10:01:37.213Z,100862.34
2023-01-08T10:04:16.566Z,100870.28
2023-01-08T10:06:52.733Z,100857.66
2023-01-08T10:09:31.891Z,100848.03
2023-01-08T10:12:04.564Z,100853.94
2023-01-08T10:14:38.990Z,100843.59
2023-01-08T10:17:22.263Z,100836.09
2023-01-08T10:19:50.254Z,100830.28
2023-01-08T10:22:21.464Z,100823.78
2023-01-08T10:24:50.944Z,100810.97
2023-01-08T10:27:21.851Z,100812.69
2023-01-08T10:29:52.786Z,100809.50
2023-01-08T10:32:30.290Z,100812.66
2023-01-08T10:34:58.818Z,100817.06
2023-01-08T10:37:32.984Z,100807.69
2023-01-08T10:40:08.934Z,100803.69
2023-01-08T10:42:37.212Z,100796.34
2023-01-08T10:45:11.134Z,100802.97
2023-01-08T10:47:39.447Z,100797.50
2023-01-08T10:50:24.463Z,100794.34
2023-01-08T10:52:55.858Z,100793.88
2023-01-08T10:55:39.597Z,100789.91
2023-01-08T10:58:10.313Z,100787.66
2023-01-08T11:00:38.415Z,100783.00
2023-01-08T11:03:08.855Z,100783.75
2023-01-08T11:05:39.969Z,100785.25
2023-01-08T11:08:17.768Z,100776.59
2023-01-08T11:10:54.903Z,100770.88
2023-01-08T11:13:23.588Z,100760.91
2023-01-08T11:16:04.129Z,100760.41
2023-01-08T11:18:42.080Z,100752.41
2023-01-08T11:21:22.671Z,100754.75
2023-01-08T11:24:19.855Z,100748.53
2023-01-08T11:27:00.516Z,100748.63
2023-01-08T11:29:31.282Z,100747.59
2023-01-08T11:32:08.007Z,100747.47
2023-01-08T11:34:53.521Z,100750.06
2023-01-08T11:37:25.298Z,100739.50
2023-01-08T11:39:54.615Z,100742.19
2023-01-08T11:43:07.068Z,100742.41
2023-01-08T11:45:53.351Z,100737.22
2023-01-08T11:48:39.749Z,100739.94
2023-01-08T11:51:16.326Z,100739.28
2023-01-08T11:54:04.611Z,100733.62
2023-01-08T11:57:08.266Z,100732.06
2023-01-08T12:00:19.956Z,100728.31
2023-01-08T12:02:52.688Z,100738.53
2023-01-08T12:05:26.165Z,100716.75
2023-01-08T12:08:07.749Z,100716.75
2023-01-08T12:10:50.663Z,100724.06
2023-01-08T12:13:45.513Z,100713.75
2023-01-08T12:16:26.311Z,100711.09
2023-01-08T12:19:13.419Z,100704.87
2023-01-08T12:22:15.936Z,100694.53
2023-01-08T12:25:07.232Z,100686.44
2023-01-08T12:27:58.049Z,100684.25
2023-01-08T12:30:43.686Z,100697.94
2023-01-08T12:33:24.263Z,100694.19
2023-01-08T12:35:55.216Z,100699.38
2023-01-08T12:38:30.916Z,100693.69
2023-01-08T12:43:00.106Z,100692.00
2023-01-08T12:45:30.341Z,100686.72
2023-01-08T12:48:09.225Z,100694.81
2023-01-08T12:50:37.117Z,100686.94
2023-01-08T12:53:14.663Z,100683.44
2023-01-08T12:56:13.238Z,100673.81
2023-01-08T12:58:54.557Z,100672.50
2023-01-08T13:01:47.051Z,100673.56
2023-01-08T13:04:15.392Z,100675.59
2023-01-08T13:07:09.831Z,100675.44
2023-01-08T13:09:37.755Z,100666.44
2023-01-08T13:12:06.303Z,100662.88
2023-01-08T13:14:46.027Z,100662.50
2023-01-08T13:17:21.375Z,100657.63
2023-01-08T13:20:01.802Z,100657.37
2023-01-08T13:22:35.537Z,100662.50
2023-01-08T13:25:15.361Z,100661.09
2023-01-08T13:27:44.391Z,100664.41
2023-01-08T13:30:36.173Z,100660.81
2023-01-08T13:33:24.122Z,100661.75
2023-01-08T13:35:51.801Z,100666.09
2023-01-08T13:38:21.448Z,100661.50
2023-01-08T13:40:53.603Z,100658.41
2023-01-08T13:43:44.896Z,100649.97
2023-01-08T13:46:18.724Z,100659.53
2023-01-08T13:48:57.866Z,100658.72
2023-01-08T13:51:40.615Z,100663.75
2023-01-08T13:54:17.846Z,100656.12
2023-01-08T13:56:48.878Z,100647.72
2023-01-08T13:59:26.886Z,100651.25
2023-01-08T14:01:56.032Z,100650.37
2023-01-08T14:04:24.598Z,100652.12
2023-01-08T14:06:52.325Z,100645.75
2023-01-08T14:09:23.232Z,100643.63
2023-01-08T14:11:58.150Z,100639.12
2023-01-08T14:14:25.689Z,100645.41
2023-01-08T14:16:54.099Z,100642.19
2023-01-08T14:19:24.987Z,100639.53
2023-01-08T14:21:56.076Z,100635.84
2023-01-08T14:24:25.752Z,100635.97
2023-01-08T14:26:59.230Z,100632.50
2023-01-08T14:29:30.045Z,100637.69
2023-01-08T14:32:00.390Z,100633.31
2023-01-08T14:34:31.247Z,100633.94
2023-01-08T14:37:00.387Z,100629.12
2023-01-08T14:39:36.427Z,100623.13
2023-01-08T14:42:33.444Z,100616.47
2023-01-08T14:45:11.080Z,100616.69
2023-01-08T14:47:44.953Z,100625.91
2023-01-08T14:50:37.411Z,100620.47
2023-01-08T14:53:20.559Z,100615.69
2023-01-08T14:55:50.728Z,100622.28
2023-01-08T14:58:23.896Z,100617.34
2023-01-08T15:01:00.073Z,100621.13
2023-01-08T15:03:40.644Z,100615.59
2023-01-08T15:06:11.454Z,100625.06
2023-01-08T15:08:44.640Z,100596.50
2023-01-08T15:11:18.114Z,100606.72
2023-01-08T15:13:48.178Z,100602.22
2023-01-08T15:16:32.958Z,100603.34
2023-01-08T15:19:10.746Z,100595.47
2023-01-08T15:22:02.001Z,100596.25
2023-01-08T15:24:36.370Z,100585.50
2023-01-08T15:27:10.148Z,100591.44
2023-01-08T15:29:48.553Z,100590.06
2023-01-08T15:32:16.045Z,100593.66
2023-01-08T15:34:45.721Z,100594.78
2023-01-08T15:37:14.987Z,100584.16
2023-01-08T15:39:42.951Z,100585.53
2023-01-08T15:42:32.562Z,100582.34
2023-01-08T15:45:00.057Z,100586.75
2023-01-08T15:47:27.942Z,100588.31
2023-01-08T15:49:55.605Z,100585.09
2023-01-08T15:52:29.845Z,100577.47
2023-01-08T15:54:59.521Z,100576.84
2023-01-08T15:57:30.170Z,100578.56
2023-01-08T15:59:58.987Z,100575.66
2023-01-08T16:02:26.827Z,100572.91
2023-01-08T16:04:56.470Z,100580.47
2023-01-08T16:07:25.574Z,100572.59
2023-01-08T16:09:53.430Z,100575.28
2023-01-08T16:12:21.305Z,100572.91
2023-01-08T16:14:48.907Z,100566.06
2023-01-08T16:17:16.557Z,100561.25
2023-01-08T16:19:44.539Z,100554.69
2023-01-08T16:22:12.493Z,100566.59
2023-01-08T16:24:40.723Z,100554.78
2023-01-08T16:27:09.963Z,100566.19
2023-01-08T16:29:37.750Z,100559.03
2023-01-08T16:32:05.538Z,100560.94
2023-01-08T16:34:33.465Z,100560.94
2023-01-08T16:37:01.057Z,100562.28
2023-01-08T16:39:28.870Z,100552.59
2023-01-08T16:41:56.874Z,100561.41
2023-01-08T16:44:28.580Z,100545.75
2023-01-08T16:46:57.372Z,100550.84
2023-01-08T16:49:25.137Z,100554.59
2023-01-08T16:51:53.512Z,100556.75
2023-01-08T16:54:21.794Z,100542.53
2023-01-08T16:56:49.355Z,100535.25
2023-01-08T16:59:23.152Z,100541.59
2023-01-08T17:01:53.416Z,100535.72
2023-01-08T17:04:21.345Z,100543.31
2023-01-08T17:06:49.291Z,100533.94
2023-01-08T17:09:17.171Z,100534.34
2023-01-08T17:11:45.858Z,100527.31
2023-01-08T17:14:13.952Z,100532.16
2023-01-08T17:16:45.189Z,100529.91
2023-01-08T17:19:13.535Z,100527.88
2023-01-08T17:21:41.525Z,100532.22
2023-01-08T17:24:09.530Z,100528.72
2023-01-08T17:26:37.184Z,100526.78
2023-01-08T17:29:04.949Z,100525.13
2023-01-08T17:31:39.666Z,100531.41
2023-01-08T17:34:12.772Z,100524.50
2023-01-08T17:36:41.195Z,100525.34
2023-01-08T17:39:10.193Z,100523.59
2023-01-08T17:41:56.792Z,100520.94
2023-01-08T17:44:26.416Z,100516.41
2023-01-08T17:46:54.210Z,100507.47
2023-01-08T17:49:21.924Z,100508.69
2023-01-08T17:51:50.376Z,100504.75
2023-01-08T17:54:19.130Z,100506.75
2023-01-08T17:56:48.909Z,100507.97
2023-01-08T17:59:18.410Z,100499.38
2023-01-08T18:01:47.768Z,100513.50
2023-01-08T18:04:16.339Z,100507.81
2023-01-08T18:06:44.467Z,100503.47
2023-01-08T18:09:13.123Z,100503.09
2023-01-08T18:11:42.031Z,100506.38
2023-01-08T18:14:12.072Z,100504.34
2023-01-08T18:16:40.243Z,100502.91
2023-01-08T18:19:09.371Z,100501.63
2023-01-08T18:21:37.489Z,100501.03
2023-01-08T18:24:05.362Z,100498.75
2023-01-08T18:26:33.829Z,100491.50
2023-01-08T18:29:01.497Z,100492.69
2023-01-08T18:31:29.722Z,100490.38
2023-01-08T18:33:58.561Z,100490.06
2023-01-08T18:36:26.547Z,100489.38
2023-01-08T18:38:57.388Z,100485.19
2023-01-08T18:41:44.054Z,100498.03
2023-01-08T18:44:11.952Z,100494.34
2023-01-08T18:46:40.148Z,100491.41
2023-01-08T18:49:07.888Z,100496.12
2023-01-08T18:51:35.606Z,100488.13
2023-01-08T18:54:04.619Z,100495.84
2023-01-08T18:56:35.097Z,100496.16
2023-01-08T18:59:05.523Z,100486.84
2023-01-08T19:01:35.292Z,100492.66
2023-01-08T19:04:03.958Z,100481.19
2023-01-08T19:06:31.782Z,100483.38
2023-01-08T19:09:00.209Z,100481.37
2023-01-08T19:11:28.202Z,100481.88
2023-01-08T19:13:57.180Z,100476.56
2023-01-08T19:16:25.471Z,100467.00
2023-01-08T19:18:54.458Z,100470.00
2023-01-08T19:21:22.071Z,100475.06
2023-01-08T19:23:50.341Z,100473.53
2023-01-08T19:26:18.193Z,100477.37
2023-01-08T19:28:46.110Z,100476.88
2023-01-08T19:31:17.004Z,100475.62
2023-01-08T19:33:48.732Z,100475.69
2023-01-08T19:36:18.669Z,100479.56
2023-01-08T19:38:47.237Z,100468.50
2023-01-08T19:41:33.666Z,100470.59
2023-01-08T19:44:02.075Z,100470.56
2023-01-08T19:46:31.090Z,100462.59
2023-01-08T19:48:59.867Z,100465.88
2023-01-08T19:51:29.377Z,100462.09
2023-01-08T19:53:58.527Z,100468.81
2023-01-08T19:56:26.576Z,100455.09
2023-01-08T19:58:56.512Z,100465.66
2023-01-08T20:01:27.056Z,100464.47
2023-01-08T20:03:56.199Z,100463.06
2023-01-08T20:06:26.793Z,100462.66
2023-01-08T20:08:58.457Z,100470.81
2023-01-08T20:11:28.244Z,100465.13
2023-01-08T20:14:00.368Z,100467.44
2023-01-08T20:16:29.774Z,100463.31
2023-01-08T20:19:02.022Z,100459.16
2023-01-08T20:21:34.657Z,100464.16
2023-01-08T20:24:09.485Z,100464.94
2023-01-08T20:26:38.544Z,100456.41
2023-01-08T20:29:07.091Z,100455.47
2023-01-08T20:31:35.178Z,100456.84
2023-01-08T20:34:06.768Z,100457.34
2023-01-08T20:36:34.928Z,100451.53
2023-01-08T20:39:06.340Z,100447.59
2023-01-08T20:41:34.768Z,100447.19
2023-01-08T20:44:05.382Z,100442.72
2023-01-08T20:46:35.190Z,100444.59
2023-01-08T20:49:06.608Z,100430.50
2023-01-08T20:51:37.235Z,100418.38
2023-01-08T20:54:08.113Z,100415.44
2023-01-08T20:56:36.177Z,100417.72
2023-01-08T20:59:04.839Z,100420.13
2023-01-08T21:01:34.244Z,100415.91
2023-01-08T21:04:06.282Z,100412.31
2023-01-08T21:06:34.943Z,100410.34
2023-01-08T21:09:06.863Z,100414.62
2023-01-08T21:11:37.176Z,100413.25
2023-01-08T21:14:06.014Z,100413.50
2023-01-08T21:16:35.326Z,100412.31
2023-01-08T21:19:03.425Z,100410.88
2023-01-08T21:21:34.292Z,100419.50
2023-01-08T21:24:04.541Z,100417.88
2023-01-08T21:26:37.152Z,100408.78
2023-01-08T21:29:08.942Z,100414.06
2023-01-08T21:31:38.092Z,100410.81
2023-01-08T21:34:08.689Z,100400.84
2023-01-08T21:36:39.073Z,100405.47
2023-01-08T21:39:07.110Z,100406.91
2023-01-08T21:41:53.268Z,100399.25
2023-01-08T21:44:42.938Z,100399.41
2023-01-08T21:47:14.733Z,100397.66
2023-01-08T21:49:43.989Z,100407.88
2023-01-08T21:52:30.566Z,100414.38
2023-01-08T21:54:58.473Z,100403.00
2023-01-08T21:57:28.015Z,100397.72
2023-01-08T21:59:56.204Z,100395.12
2023-01-08T22:02:24.850Z,100387.78
2023-01-08T22:04:56.688Z,100378.53
2023-01-08T22:07:25.997Z,100378.06
2023-01-08T22:09:54.597Z,100382.66
2023-01-08T22:12:23.496Z,100376.84
2023-01-08T22:14:55.241Z,100368.94
2023-01-08T22:17:25.391Z,100368.53
2023-01-08T22:19:53.596Z,100366.19
2023-01-08T22:22:21.302Z,100364.03
2023-01-08T22:24:51.797Z,100357.16
2023-01-08T22:27:19.751Z,100366.28
2023-01-08T22:29:48.925Z,100359.94
2023-01-08T22:32:16.914Z,100365.16
2023-01-08T22:34:44.516Z,100356.31
2023-01-08T22:37:12.121Z,100350.75
2023-01-08T22:39:40.155Z,100345.37
2023-01-08T22:42:07.770Z,100348.22
2023-01-08T22:44:35.531Z,100358.47
2023-01-08T22:47:03.544Z,100350.91
2023-01-08T22:49:31.114Z,100351.44
2023-01-08T22:51:59.176Z,100346.69
2023-01-08T22:54:27.033Z,100347.28
2023-01-08T22:56:54.593Z,100340.22
2023-01-08T22:59:22.293Z,100336.69
2023-01-08T23:01:50.716Z,100336.59
2023-01-08T23:04:18.385Z,100339.81
2023-01-08T23:06:45.993Z,100337.91
2023-01-08T23:09:13.947Z,100325.41
2023-01-08T23:11:41.653Z,100333.00
2023-01-08T23:14:14.098Z,100335.13
2023-01-08T23:16:42.763Z,100324.75
2023-01-08T23:19:10.636Z,100329.59
2023-01-08T23:21:38.743Z,100318.50
2023-01-08T23:24:11.101Z,100303.84
2023-01-08T23:26:38.751Z,100300.84
2023-01-08T23:29:06.715Z,100297.34
2023-01-08T23:31:37.638Z,100304.22
2023-01-08T23:34:06.664Z,100287.69
2023-01-08T23:36:34.689Z,100288.19
2023-01-08T23:39:02.699Z,100291.50
2023-01-08T23:41:34.454Z,100282.09
2023-01-08T23:44:05.932Z,100273.50
2023-01-08T23:46:34.594Z,100277.41
2023-01-08T23:49:03.514Z,100276.22
2023-01-08T23:51:31.306Z,100275.34
2023-01-08T23:53:59.364Z,100278.72
2023-01-08T23:56:27.773Z,100285.44
2023-01-08T23:58:55.352Z,100269.28
